sensor_id;sensor_type;location;lat;lon;timestamp;temperature;humidity
13798;DHT22;6970;51.340;3.240;2022-09-14T00:01:23;18.00;99.90
13798;DHT22;6970;51.340;3.240;2022-09-14T00:03:54;17.90;99.90
13798;DHT22;6970;51.340;3.240;2022-09-14T00:06:22;17.90;99.90
13798;DHT22;6970;51.340;3.240;2022-09-14T00:08:51;17.90;99.90
13798;DHT22;6970;51.340;3.240;2022-09-14T00:11:19;17.90;99.90
13798;DHT22;6970;51.340;3.240;2022-09-14T00:13:46;17.80;99.90
13798;DHT22;6970;51.340;3.240;2022-09-14T00:16:20;17.80;99.90
13798;DHT22;6970;51.340;3.240;2022-09-14T00:18:55;17.70;99.90
13798;DHT22;6970;51.340;3.240;2022-09-14T00:21:23;17.70;99.90
13798;DHT22;6970;51.340;3.240;2022-09-14T00:23:50;17.60;99.90
13798;DHT22;6970;51.340;3.240;2022-09-14T00:26:22;17.60;99.90
13798;DHT22;6970;51.340;3.240;2022-09-14T00:28:52;17.60;99.90
13798;DHT22;6970;51.340;3.240;2022-09-14T00:31:20;17.50;99.90
13798;DHT22;6970;51.340;3.240;2022-09-14T00:33:49;17.50;99.90
13798;DHT22;6970;51.340;3.240;2022-09-14T00:36:20;17.50;99.90
13798;DHT22;6970;51.340;3.240;2022-09-14T00:38:48;17.50;99.90
13798;DHT22;6970;51.340;3.240;2022-09-14T00:41:20;17.50;99.90
13798;DHT22;6970;51.340;3.240;2022-09-14T00:46:50;17.50;99.90
13798;DHT22;6970;51.340;3.240;2022-09-14T00:52:10;17.40;99.90
13798;DHT22;6970;51.340;3.240;2022-09-14T00:54:47;17.40;99.90
13798;DHT22;6970;51.340;3.240;2022-09-14T00:57:16;17.50;99.90
13798;DHT22;6970;51.340;3.240;2022-09-14T00:59:45;17.40;99.90
13798;DHT22;6970;51.340;3.240;2022-09-14T01:02:13;17.30;99.90
13798;DHT22;6970;51.340;3.240;2022-09-14T01:04:42;17.30;99.90
13798;DHT22;6970;51.340;3.240;2022-09-14T01:12:56;17.30;99.90
13798;DHT22;6970;51.340;3.240;2022-09-14T01:18:33;17.10;99.90
13798;DHT22;6970;51.340;3.240;2022-09-14T01:21:11;17.10;99.90
13798;DHT22;6970;51.340;3.240;2022-09-14T01:29:17;17.00;99.90
13798;DHT22;6970;51.340;3.240;2022-09-14T01:35:01;16.90;99.90
13798;DHT22;6970;51.340;3.240;2022-09-14T01:38:19;16.90;99.90
13798;DHT22;6970;51.340;3.240;2022-09-14T01:40:42;16.90;99.90
13798;DHT22;6970;51.340;3.240;2022-09-14T01:43:25;16.90;99.90
13798;DHT22;6970;51.340;3.240;2022-09-14T01:45:59;16.80;99.90
13798;DHT22;6970;51.340;3.240;2022-09-14T01:48:58;16.80;99.90
13798;DHT22;6970;51.340;3.240;2022-09-14T01:51:34;16.80;99.90
13798;DHT22;6970;51.340;3.240;2022-09-14T01:56:58;16.70;99.90
13798;DHT22;6970;51.340;3.240;2022-09-14T01:59:31;16.70;99.90
13798;DHT22;6970;51.340;3.240;2022-09-14T02:02:10;16.70;99.90
13798;DHT22;6970;51.340;3.240;2022-09-14T02:05:02;16.70;99.90
13798;DHT22;6970;51.340;3.240;2022-09-14T02:07:31;16.70;99.90
13798;DHT22;6970;51.340;3.240;2022-09-14T02:09:58;16.70;99.90
13798;DHT22;6970;51.340;3.240;2022-09-14T02:12:25;16.60;99.90
13798;DHT22;6970;51.340;3.240;2022-09-14T02:14:53;16.60;99.90
13798;DHT22;6970;51.340;3.240;2022-09-14T02:17:20;16.60;99.90
13798;DHT22;6970;51.340;3.240;2022-09-14T02:19:51;16.60;99.90
13798;DHT22;6970;51.340;3.240;2022-09-14T02:22:19;16.60;99.90
13798;DHT22;6970;51.340;3.240;2022-09-14T02:24:47;16.60;99.90
13798;DHT22;6970;51.340;3.240;2022-09-14T02:27:15;16.60;99.90
13798;DHT22;6970;51.340;3.240;2022-09-14T02:29:42;16.50;99.90
13798;DHT22;6970;51.340;3.240;2022-09-14T02:41:17;16.40;99.90
13798;DHT22;6970;51.340;3.240;2022-09-14T02:46:41;16.40;99.90
13798;DHT22;6970;51.340;3.240;2022-09-14T02:52:13;16.40;99.90
13798;DHT22;6970;51.340;3.240;2022-09-14T02:57:22;16.40;99.90
13798;DHT22;6970;51.340;3.240;2022-09-14T02:59:48;16.40;99.90
13798;DHT22;6970;51.340;3.240;2022-09-14T03:02:15;16.30;99.90
13798;DHT22;6970;51.340;3.240;2022-09-14T03:04:42;16.40;99.90
13798;DHT22;6970;51.340;3.240;2022-09-14T03:07:09;16.40;99.90
13798;DHT22;6970;51.340;3.240;2022-09-14T03:09:36;16.30;99.90
13798;DHT22;6970;51.340;3.240;2022-09-14T03:12:03;16.30;99.90
13798;DHT22;6970;51.340;3.240;2022-09-14T03:14:30;16.30;99.90
13798;DHT22;6970;51.340;3.240;2022-09-14T03:16:57;16.30;99.90
13798;DHT22;6970;51.340;3.240;2022-09-14T03:19:24;16.30;99.90
13798;DHT22;6970;51.340;3.240;2022-09-14T03:21:51;16.30;99.90
13798;DHT22;6970;51.340;3.240;2022-09-14T03:24:18;16.30;99.90
13798;DHT22;6970;51.340;3.240;2022-09-14T03:26:45;16.30;99.90
13798;DHT22;6970;51.340;3.240;2022-09-14T03:29:12;16.20;99.90
13798;DHT22;6970;51.340;3.240;2022-09-14T03:31:39;16.20;99.90
13798;DHT22;6970;51.340;3.240;2022-09-14T03:34:09;16.20;99.90
13798;DHT22;6970;51.340;3.240;2022-09-14T03:36:36;16.20;99.90
13798;DHT22;6970;51.340;3.240;2022-09-14T03:39:03;16.20;99.90
13798;DHT22;6970;51.340;3.240;2022-09-14T03:41:30;16.20;99.90
13798;DHT22;6970;51.340;3.240;2022-09-14T03:43:57;16.10;99.90
13798;DHT22;6970;51.340;3.240;2022-09-14T03:46:24;16.10;99.90
13798;DHT22;6970;51.340;3.240;2022-09-14T03:48:53;16.00;99.90
13798;DHT22;6970;51.340;3.240;2022-09-14T03:51:21;16.00;99.90
13798;DHT22;6970;51.340;3.240;2022-09-14T03:53:48;16.10;99.90
13798;DHT22;6970;51.340;3.240;2022-09-14T03:56:17;16.10;99.90
13798;DHT22;6970;51.340;3.240;2022-09-14T03:58:46;16.10;99.90
13798;DHT22;6970;51.340;3.240;2022-09-14T04:01:15;16.10;99.90
13798;DHT22;6970;51.340;3.240;2022-09-14T04:03:43;16.10;99.90
13798;DHT22;6970;51.340;3.240;2022-09-14T04:06:10;16.10;99.90
13798;DHT22;6970;51.340;3.240;2022-09-14T04:08:39;16.10;99.90
13798;DHT22;6970;51.340;3.240;2022-09-14T04:11:16;16.10;99.90
13798;DHT22;6970;51.340;3.240;2022-09-14T04:13:44;16.10;99.90
13798;DHT22;6970;51.340;3.240;2022-09-14T04:16:11;16.10;99.90
13798;DHT22;6970;51.340;3.240;2022-09-14T04:18:38;16.10;99.90
13798;DHT22;6970;51.340;3.240;2022-09-14T04:21:17;16.10;99.90
13798;DHT22;6970;51.340;3.240;2022-09-14T04:23:45;16.10;99.90
13798;DHT22;6970;51.340;3.240;2022-09-14T04:26:32;16.10;99.90
13798;DHT22;6970;51.340;3.240;2022-09-14T04:29:00;16.10;99.90
13798;DHT22;6970;51.340;3.240;2022-09-14T04:31:27;16.10;99.90
13798;DHT22;6970;51.340;3.240;2022-09-14T04:33:54;16.10;99.90
13798;DHT22;6970;51.340;3.240;2022-09-14T04:36:24;16.00;99.90
13798;DHT22;6970;51.340;3.240;2022-09-14T04:38:56;16.00;99.90
13798;DHT22;6970;51.340;3.240;2022-09-14T04:41:24;16.00;99.90
13798;DHT22;6970;51.340;3.240;2022-09-14T04:43:52;16.00;99.90
13798;DHT22;6970;51.340;3.240;2022-09-14T04:46:22;16.00;99.90
13798;DHT22;6970;51.340;3.240;2022-09-14T04:48:50;16.00;99.90
13798;DHT22;6970;51.340;3.240;2022-09-14T04:51:22;16.00;99.90
13798;DHT22;6970;51.340;3.240;2022-09-14T04:53:51;16.10;99.90
13798;DHT22;6970;51.340;3.240;2022-09-14T04:56:20;16.10;99.90
13798;DHT22;6970;51.340;3.240;2022-09-14T04:58:55;16.10;99.90
13798;DHT22;6970;51.340;3.240;2022-09-14T05:01:24;16.10;99.90
13798;DHT22;6970;51.340;3.240;2022-09-14T05:03:52;16.10;99.90
13798;DHT22;6970;51.340;3.240;2022-09-14T05:06:25;16.10;99.90
13798;DHT22;6970;51.340;3.240;2022-09-14T05:08:53;16.10;99.90
13798;DHT22;6970;51.340;3.240;2022-09-14T05:11:26;16.10;99.90
13798;DHT22;6970;51.340;3.240;2022-09-14T05:13:55;16.10;99.90
13798;DHT22;6970;51.340;3.240;2022-09-14T05:16:28;16.10;99.90
13798;DHT22;6970;51.340;3.240;2022-09-14T05:19:07;16.10;99.90
13798;DHT22;6970;51.340;3.240;2022-09-14T05:21:35;16.10;99.90
13798;DHT22;6970;51.340;3.240;2022-09-14T05:24:10;16.10;99.90
13798;DHT22;6970;51.340;3.240;2022-09-14T05:26:40;16.10;99.90
13798;DHT22;6970;51.340;3.240;2022-09-14T05:29:11;16.10;99.90
13798;DHT22;6970;51.340;3.240;2022-09-14T05:31:38;16.10;99.90
13798;DHT22;6970;51.340;3.240;2022-09-14T05:34:05;16.10;99.90
13798;DHT22;6970;51.340;3.240;2022-09-14T05:36:34;16.10;99.90
13798;DHT22;6970;51.340;3.240;2022-09-14T05:39:01;16.00;99.90
13798;DHT22;6970;51.340;3.240;2022-09-14T05:41:28;16.00;99.90
13798;DHT22;6970;51.340;3.240;2022-09-14T05:43:55;16.00;99.90
13798;DHT22;6970;51.340;3.240;2022-09-14T05:46:24;16.00;99.90
13798;DHT22;6970;51.340;3.240;2022-09-14T05:48:51;16.00;99.90
13798;DHT22;6970;51.340;3.240;2022-09-14T05:51:20;16.10;99.90
13798;DHT22;6970;51.340;3.240;2022-09-14T05:53:49;16.10;99.90
13798;DHT22;6970;51.340;3.240;2022-09-14T05:56:18;16.10;99.90
13798;DHT22;6970;51.340;3.240;2022-09-14T05:58:45;16.10;99.90
13798;DHT22;6970;51.340;3.240;2022-09-14T06:01:22;16.10;99.90
13798;DHT22;6970;51.340;3.240;2022-09-14T06:03:53;16.10;99.90
13798;DHT22;6970;51.340;3.240;2022-09-14T06:06:21;16.10;99.90
13798;DHT22;6970;51.340;3.240;2022-09-14T06:08:49;16.00;99.90
13798;DHT22;6970;51.340;3.240;2022-09-14T06:11:24;16.00;99.90
13798;DHT22;6970;51.340;3.240;2022-09-14T06:13:52;15.90;99.90
13798;DHT22;6970;51.340;3.240;2022-09-14T06:16:21;15.90;99.90
13798;DHT22;6970;51.340;3.240;2022-09-14T06:18:49;15.90;99.90
13798;DHT22;6970;51.340;3.240;2022-09-14T06:21:17;15.90;99.90
13798;DHT22;6970;51.340;3.240;2022-09-14T06:23:46;15.90;99.90
13798;DHT22;6970;51.340;3.240;2022-09-14T06:26:14;15.80;99.90
13798;DHT22;6970;51.340;3.240;2022-09-14T06:28:41;15.80;99.90
13798;DHT22;6970;51.340;3.240;2022-09-14T06:31:11;15.80;99.90
13798;DHT22;6970;51.340;3.240;2022-09-14T06:33:42;15.80;99.90
13798;DHT22;6970;51.340;3.240;2022-09-14T06:36:12;15.80;99.90
13798;DHT22;6970;51.340;3.240;2022-09-14T06:38:40;15.70;99.90
13798;DHT22;6970;51.340;3.240;2022-09-14T06:41:10;15.70;99.90
13798;DHT22;6970;51.340;3.240;2022-09-14T06:43:39;15.70;99.90
13798;DHT22;6970;51.340;3.240;2022-09-14T06:46:07;15.70;99.90
13798;DHT22;6970;51.340;3.240;2022-09-14T06:48:37;15.70;99.90
13798;DHT22;6970;51.340;3.240;2022-09-14T06:51:13;15.70;99.90
13798;DHT22;6970;51.340;3.240;2022-09-14T06:53:41;15.70;99.90
13798;DHT22;6970;51.340;3.240;2022-09-14T06:56:08;15.70;99.90
13798;DHT22;6970;51.340;3.240;2022-09-14T06:58:35;15.70;99.90
13798;DHT22;6970;51.340;3.240;2022-09-14T07:01:13;15.70;99.90
13798;DHT22;6970;51.340;3.240;2022-09-14T07:03:42;15.70;99.90
13798;DHT22;6970;51.340;3.240;2022-09-14T07:06:12;15.70;99.90
13798;DHT22;6970;51.340;3.240;2022-09-14T07:08:40;15.70;99.90
13798;DHT22;6970;51.340;3.240;2022-09-14T07:11:08;15.70;99.90
13798;DHT22;6970;51.340;3.240;2022-09-14T07:13:36;15.60;99.90
13798;DHT22;6970;51.340;3.240;2022-09-14T07:16:03;15.60;99.90
13798;DHT22;6970;51.340;3.240;2022-09-14T07:18:31;15.60;99.90
13798;DHT22;6970;51.340;3.240;2022-09-14T07:21:11;15.60;99.90
13798;DHT22;6970;51.340;3.240;2022-09-14T07:23:40;15.50;99.90
13798;DHT22;6970;51.340;3.240;2022-09-14T07:26:36;15.50;99.90
13798;DHT22;6970;51.340;3.240;2022-09-14T07:29:02;15.50;99.90
13798;DHT22;6970;51.340;3.240;2022-09-14T07:31:32;15.50;99.90
13798;DHT22;6970;51.340;3.240;2022-09-14T07:34:02;15.50;99.90
13798;DHT22;6970;51.340;3.240;2022-09-14T07:36:31;15.50;99.90
13798;DHT22;6970;51.340;3.240;2022-09-14T07:39:02;15.50;99.90
13798;DHT22;6970;51.340;3.240;2022-09-14T07:41:30;15.50;99.90
13798;DHT22;6970;51.340;3.240;2022-09-14T07:44:01;15.50;99.90
13798;DHT22;6970;51.340;3.240;2022-09-14T07:46:31;15.50;99.90
13798;DHT22;6970;51.340;3.240;2022-09-14T07:49:03;15.50;99.90
13798;DHT22;6970;51.340;3.240;2022-09-14T07:51:31;15.50;99.90
13798;DHT22;6970;51.340;3.240;2022-09-14T07:53:58;15.50;99.90
13798;DHT22;6970;51.340;3.240;2022-09-14T07:56:27;15.50;99.90
13798;DHT22;6970;51.340;3.240;2022-09-14T07:58:57;15.50;99.90
13798;DHT22;6970;51.340;3.240;2022-09-14T08:01:44;15.50;99.90
13798;DHT22;6970;51.340;3.240;2022-09-14T08:04:12;15.40;99.90
13798;DHT22;6970;51.340;3.240;2022-09-14T08:06:39;15.50;99.90
13798;DHT22;6970;51.340;3.240;2022-09-14T08:09:07;15.40;99.90
13798;DHT22;6970;51.340;3.240;2022-09-14T08:11:37;15.40;99.90
13798;DHT22;6970;51.340;3.240;2022-09-14T08:14:06;15.40;99.90
13798;DHT22;6970;51.340;3.240;2022-09-14T08:16:35;15.40;99.90
13798;DHT22;6970;51.340;3.240;2022-09-14T08:19:07;15.40;99.90
13798;DHT22;6970;51.340;3.240;2022-09-14T08:21:36;15.40;99.90
13798;DHT22;6970;51.340;3.240;2022-09-14T08:24:11;15.40;99.90
13798;DHT22;6970;51.340;3.240;2022-09-14T08:26:39;15.50;99.90
13798;DHT22;6970;51.340;3.240;2022-09-14T08:29:10;15.50;99.90
13798;DHT22;6970;51.340;3.240;2022-09-14T08:31:37;15.50;99.90
13798;DHT22;6970;51.340;3.240;2022-09-14T08:34:06;15.50;99.90
13798;DHT22;6970;51.340;3.240;2022-09-14T08:36:38;15.50;99.90
13798;DHT22;6970;51.340;3.240;2022-09-14T08:39:07;15.50;99.90
13798;DHT22;6970;51.340;3.240;2022-09-14T08:44:16;15.50;99.90
13798;DHT22;6970;51.340;3.240;2022-09-14T08:51:56;15.60;99.90
13798;DHT22;6970;51.340;3.240;2022-09-14T08:54:23;15.60;99.90
13798;DHT22;6970;51.340;3.240;2022-09-14T08:57:18;15.70;99.90
13798;DHT22;6970;51.340;3.240;2022-09-14T09:00:02;15.70;99.90
13798;DHT22;6970;51.340;3.240;2022-09-14T09:05:32;15.70;99.90
13798;DHT22;6970;51.340;3.240;2022-09-14T09:10:43;15.70;99.90
13798;DHT22;6970;51.340;3.240;2022-09-14T09:13:18;15.70;99.90
13798;DHT22;6970;51.340;3.240;2022-09-14T09:15:50;15.70;99.90
13798;DHT22;6970;51.340;3.240;2022-09-14T09:21:23;15.60;99.90
13798;DHT22;6970;51.340;3.240;2022-09-14T09:23:53;15.60;99.90
13798;DHT22;6970;51.340;3.240;2022-09-14T09:26:28;15.60;99.90
13798;DHT22;6970;51.340;3.240;2022-09-14T09:28:58;15.60;99.90
13798;DHT22;6970;51.340;3.240;2022-09-14T09:33:57;15.60;99.90
13798;DHT22;6970;51.340;3.240;2022-09-14T09:36:24;15.60;99.90
13798;DHT22;6970;51.340;3.240;2022-09-14T09:38:52;15.60;99.90
13798;DHT22;6970;51.340;3.240;2022-09-14T09:41:21;15.50;99.90
13798;DHT22;6970;51.340;3.240;2022-09-14T09:46:33;15.50;99.90
13798;DHT22;6970;51.340;3.240;2022-09-14T09:49:03;15.50;99.90
13798;DHT22;6970;51.340;3.240;2022-09-14T09:51:32;15.50;99.90
13798;DHT22;6970;51.340;3.240;2022-09-14T09:54:07;15.50;99.90
13798;DHT22;6970;51.340;3.240;2022-09-14T09:56:40;15.50;99.90
13798;DHT22;6970;51.340;3.240;2022-09-14T09:59:40;15.50;99.90
13798;DHT22;6970;51.340;3.240;2022-09-14T10:02:28;15.50;99.90
13798;DHT22;6970;51.340;3.240;2022-09-14T10:07:57;15.50;99.90
13798;DHT22;6970;51.340;3.240;2022-09-14T10:13:02;15.50;99.90
13798;DHT22;6970;51.340;3.240;2022-09-14T10:18:06;15.50;99.90
13798;DHT22;6970;51.340;3.240;2022-09-14T10:20:36;15.50;99.90
13798;DHT22;6970;51.340;3.240;2022-09-14T10:25:51;15.50;99.90
13798;DHT22;6970;51.340;3.240;2022-09-14T10:28:31;15.50;99.90
13798;DHT22;6970;51.340;3.240;2022-09-14T10:33:38;15.50;99.90
13798;DHT22;6970;51.340;3.240;2022-09-14T10:36:27;15.50;99.90
13798;DHT22;6970;51.340;3.240;2022-09-14T10:39:08;15.50;99.90
13798;DHT22;6970;51.340;3.240;2022-09-14T10:42:00;15.50;99.90
13798;DHT22;6970;51.340;3.240;2022-09-14T11:00:13;15.50;99.90
13798;DHT22;6970;51.340;3.240;2022-09-14T11:03:09;15.50;99.90
13798;DHT22;6970;51.340;3.240;2022-09-14T11:08:46;15.50;99.90
13798;DHT22;6970;51.340;3.240;2022-09-14T11:11:27;15.50;99.90
13798;DHT22;6970;51.340;3.240;2022-09-14T11:22:20;15.60;99.90
13798;DHT22;6970;51.340;3.240;2022-09-14T11:27:38;15.70;99.90
13798;DHT22;6970;51.340;3.240;2022-09-14T11:30:37;15.70;99.90
13798;DHT22;6970;51.340;3.240;2022-09-14T11:33:15;15.70;99.90
13798;DHT22;6970;51.340;3.240;2022-09-14T11:35:50;15.70;99.90
13798;DHT22;6970;51.340;3.240;2022-09-14T11:38:33;15.70;99.90
13798;DHT22;6970;51.340;3.240;2022-09-14T11:43:52;15.80;99.90
13798;DHT22;6970;51.340;3.240;2022-09-14T11:49:21;15.90;99.90
13798;DHT22;6970;51.340;3.240;2022-09-14T11:54:39;16.00;99.90
13798;DHT22;6970;51.340;3.240;2022-09-14T11:57:18;16.00;99.90
13798;DHT22;6970;51.340;3.240;2022-09-14T11:59:51;16.00;99.90
13798;DHT22;6970;51.340;3.240;2022-09-14T12:12:50;16.10;99.90
13798;DHT22;6970;51.340;3.240;2022-09-14T12:25:37;16.40;99.90
13798;DHT22;6970;51.340;3.240;2022-09-14T12:54:17;16.40;99.90
13798;DHT22;6970;51.340;3.240;2022-09-14T12:57:09;16.50;99.90
13798;DHT22;6970;51.340;3.240;2022-09-14T13:05:32;16.70;99.90
13798;DHT22;6970;51.340;3.240;2022-09-14T13:08:05;16.70;99.90
13798;DHT22;6970;51.340;3.240;2022-09-14T13:10:37;16.80;99.90
13798;DHT22;6970;51.340;3.240;2022-09-14T13:13:18;16.80;99.90
13798;DHT22;6970;51.340;3.240;2022-09-14T13:15:54;16.90;99.90
13798;DHT22;6970;51.340;3.240;2022-09-14T13:20:55;17.00;99.90
13798;DHT22;6970;51.340;3.240;2022-09-14T13:25:56;17.00;99.90
13798;DHT22;6970;51.340;3.240;2022-09-14T13:28:27;17.10;99.90
13798;DHT22;6970;51.340;3.240;2022-09-14T13:30:57;17.10;99.90
13798;DHT22;6970;51.340;3.240;2022-09-14T13:33:27;17.10;99.90
13798;DHT22;6970;51.340;3.240;2022-09-14T13:35:56;17.20;99.90
13798;DHT22;6970;51.340;3.240;2022-09-14T13:38:32;17.30;99.90
13798;DHT22;6970;51.340;3.240;2022-09-14T13:41:27;17.30;99.90
13798;DHT22;6970;51.340;3.240;2022-09-14T13:43:55;17.30;99.90
13798;DHT22;6970;51.340;3.240;2022-09-14T13:46:24;17.40;99.90
13798;DHT22;6970;51.340;3.240;2022-09-14T13:48:52;17.50;99.90
13798;DHT22;6970;51.340;3.240;2022-09-14T13:51:25;17.60;99.90
13798;DHT22;6970;51.340;3.240;2022-09-14T13:53:57;17.70;99.90
13798;DHT22;6970;51.340;3.240;2022-09-14T13:56:30;17.70;99.90
13798;DHT22;6970;51.340;3.240;2022-09-14T14:04:35;18.00;99.90
13798;DHT22;6970;51.340;3.240;2022-09-14T14:12:08;18.20;99.90
13798;DHT22;6970;51.340;3.240;2022-09-14T14:14:37;18.30;99.90
13798;DHT22;6970;51.340;3.240;2022-09-14T14:17:23;18.40;99.90
13798;DHT22;6970;51.340;3.240;2022-09-14T14:19:52;18.40;99.90
13798;DHT22;6970;51.340;3.240;2022-09-14T14:22:30;18.30;99.90
13798;DHT22;6970;51.340;3.240;2022-09-14T14:24:58;18.20;99.90
13798;DHT22;6970;51.340;3.240;2022-09-14T14:27:43;18.20;99.90
13798;DHT22;6970;51.340;3.240;2022-09-14T14:30:17;18.20;99.90
13798;DHT22;6970;51.340;3.240;2022-09-14T14:32:52;18.10;99.90
13798;DHT22;6970;51.340;3.240;2022-09-14T14:35:26;18.10;99.90
13798;DHT22;6970;51.340;3.240;2022-09-14T14:37:53;18.00;99.90
13798;DHT22;6970;51.340;3.240;2022-09-14T14:40:21;18.00;99.90
13798;DHT22;6970;51.340;3.240;2022-09-14T14:42:49;18.00;99.90
13798;DHT22;6970;51.340;3.240;2022-09-14T14:45:22;18.00;99.90
13798;DHT22;6970;51.340;3.240;2022-09-14T14:47:53;18.10;99.90
13798;DHT22;6970;51.340;3.240;2022-09-14T14:50:29;18.10;99.90
13798;DHT22;6970;51.340;3.240;2022-09-14T14:52:56;18.10;99.90
13798;DHT22;6970;51.340;3.240;2022-09-14T14:55:24;18.10;99.90
13798;DHT22;6970;51.340;3.240;2022-09-14T14:57:53;18.10;99.90
13798;DHT22;6970;51.340;3.240;2022-09-14T15:00:24;18.10;99.90
13798;DHT22;6970;51.340;3.240;2022-09-14T15:02:51;18.10;99.90
13798;DHT22;6970;51.340;3.240;2022-09-14T15:05:18;18.10;99.90
13798;DHT22;6970;51.340;3.240;2022-09-14T15:07:45;18.10;99.90
13798;DHT22;6970;51.340;3.240;2022-09-14T15:10:15;18.10;99.90
13798;DHT22;6970;51.340;3.240;2022-09-14T15:12:43;18.10;99.90
13798;DHT22;6970;51.340;3.240;2022-09-14T15:15:20;18.10;99.90
13798;DHT22;6970;51.340;3.240;2022-09-14T15:17:49;18.00;99.90
13798;DHT22;6970;51.340;3.240;2022-09-14T15:20:16;18.00;99.90
13798;DHT22;6970;51.340;3.240;2022-09-14T15:22:46;18.00;99.90
13798;DHT22;6970;51.340;3.240;2022-09-14T15:25:15;18.10;99.90
13798;DHT22;6970;51.340;3.240;2022-09-14T15:27:42;18.10;99.90
13798;DHT22;6970;51.340;3.240;2022-09-14T15:30:10;18.20;99.90
13798;DHT22;6970;51.340;3.240;2022-09-14T15:32:38;18.30;99.90
13798;DHT22;6970;51.340;3.240;2022-09-14T15:35:07;18.40;99.90
13798;DHT22;6970;51.340;3.240;2022-09-14T15:37:35;18.50;99.90
13798;DHT22;6970;51.340;3.240;2022-09-14T15:40:03;18.50;99.90
13798;DHT22;6970;51.340;3.240;2022-09-14T15:42:30;18.60;99.90
13798;DHT22;6970;51.340;3.240;2022-09-14T15:44:57;18.60;99.90
13798;DHT22;6970;51.340;3.240;2022-09-14T15:47:24;18.70;99.90
13798;DHT22;6970;51.340;3.240;2022-09-14T15:49:51;18.70;99.90
13798;DHT22;6970;51.340;3.240;2022-09-14T15:52:18;18.60;99.90
13798;DHT22;6970;51.340;3.240;2022-09-14T15:54:45;18.50;99.90
13798;DHT22;6970;51.340;3.240;2022-09-14T15:57:12;18.50;99.90
13798;DHT22;6970;51.340;3.240;2022-09-14T15:59:39;18.50;99.90
13798;DHT22;6970;51.340;3.240;2022-09-14T16:02:06;18.40;99.90
13798;DHT22;6970;51.340;3.240;2022-09-14T16:04:35;18.40;99.90
13798;DHT22;6970;51.340;3.240;2022-09-14T16:07:03;18.40;99.90
13798;DHT22;6970;51.340;3.240;2022-09-14T16:09:38;18.40;99.90
13798;DHT22;6970;51.340;3.240;2022-09-14T16:12:08;18.40;99.90
13798;DHT22;6970;51.340;3.240;2022-09-14T16:14:35;18.40;99.90
13798;DHT22;6970;51.340;3.240;2022-09-14T16:17:02;18.40;99.90
13798;DHT22;6970;51.340;3.240;2022-09-14T16:19:31;18.40;99.90
13798;DHT22;6970;51.340;3.240;2022-09-14T16:21:58;18.30;99.90
13798;DHT22;6970;51.340;3.240;2022-09-14T16:24:25;18.30;99.90
13798;DHT22;6970;51.340;3.240;2022-09-14T16:26:53;18.20;99.90
13798;DHT22;6970;51.340;3.240;2022-09-14T16:29:21;18.30;99.90
13798;DHT22;6970;51.340;3.240;2022-09-14T16:31:50;18.30;99.90
13798;DHT22;6970;51.340;3.240;2022-09-14T16:34:23;18.40;99.90
13798;DHT22;6970;51.340;3.240;2022-09-14T16:36:50;18.50;99.90
13798;DHT22;6970;51.340;3.240;2022-09-14T16:39:21;18.50;99.90
13798;DHT22;6970;51.340;3.240;2022-09-14T16:41:49;18.60;99.90
13798;DHT22;6970;51.340;3.240;2022-09-14T16:44:21;18.70;99.90
13798;DHT22;6970;51.340;3.240;2022-09-14T16:46:50;18.70;99.90
13798;DHT22;6970;51.340;3.240;2022-09-14T16:49:18;18.70;99.90
13798;DHT22;6970;51.340;3.240;2022-09-14T16:51:52;18.70;99.90
13798;DHT22;6970;51.340;3.240;2022-09-14T16:54:20;18.70;99.90
13798;DHT22;6970;51.340;3.240;2022-09-14T16:56:47;18.70;99.90
13798;DHT22;6970;51.340;3.240;2022-09-14T16:59:14;18.70;99.90
13798;DHT22;6970;51.340;3.240;2022-09-14T17:01:44;18.60;99.90
13798;DHT22;6970;51.340;3.240;2022-09-14T17:04:19;18.60;99.90
13798;DHT22;6970;51.340;3.240;2022-09-14T17:06:49;18.60;99.90
13798;DHT22;6970;51.340;3.240;2022-09-14T17:09:26;18.50;99.90
13798;DHT22;6970;51.340;3.240;2022-09-14T17:11:55;18.40;99.90
13798;DHT22;6970;51.340;3.240;2022-09-14T17:14:29;18.40;99.90
13798;DHT22;6970;51.340;3.240;2022-09-14T17:16:57;18.30;99.90
13798;DHT22;6970;51.340;3.240;2022-09-14T17:19:26;18.30;99.90
13798;DHT22;6970;51.340;3.240;2022-09-14T17:21:54;18.30;99.90
13798;DHT22;6970;51.340;3.240;2022-09-14T17:24:21;18.20;99.90
13798;DHT22;6970;51.340;3.240;2022-09-14T17:26:49;18.10;99.90
13798;DHT22;6970;51.340;3.240;2022-09-14T17:29:16;18.00;99.90
13798;DHT22;6970;51.340;3.240;2022-09-14T17:31:44;18.00;99.90
13798;DHT22;6970;51.340;3.240;2022-09-14T17:34:13;17.90;99.90
13798;DHT22;6970;51.340;3.240;2022-09-14T17:36:42;17.90;99.90
13798;DHT22;6970;51.340;3.240;2022-09-14T17:39:11;17.90;99.90
13798;DHT22;6970;51.340;3.240;2022-09-14T17:41:39;17.80;99.90
13798;DHT22;6970;51.340;3.240;2022-09-14T17:44:09;17.80;99.90
13798;DHT22;6970;51.340;3.240;2022-09-14T17:46:36;17.80;99.90
13798;DHT22;6970;51.340;3.240;2022-09-14T17:49:16;17.80;99.90
13798;DHT22;6970;51.340;3.240;2022-09-14T17:51:43;17.80;99.90
13798;DHT22;6970;51.340;3.240;2022-09-14T17:54:11;17.80;99.90
13798;DHT22;6970;51.340;3.240;2022-09-14T17:56:38;17.80;99.90
13798;DHT22;6970;51.340;3.240;2022-09-14T17:59:10;17.70;99.90
13798;DHT22;6970;51.340;3.240;2022-09-14T18:01:37;17.70;99.90
13798;DHT22;6970;51.340;3.240;2022-09-14T18:04:07;17.70;99.90
13798;DHT22;6970;51.340;3.240;2022-09-14T18:06:37;17.70;99.90
13798;DHT22;6970;51.340;3.240;2022-09-14T18:09:11;17.60;99.90
13798;DHT22;6970;51.340;3.240;2022-09-14T18:11:39;17.60;99.90
13798;DHT22;6970;51.340;3.240;2022-09-14T18:14:06;17.60;99.90
13798;DHT22;6970;51.340;3.240;2022-09-14T18:16:38;17.50;99.90
13798;DHT22;6970;51.340;3.240;2022-09-14T18:19:05;17.50;99.90
13798;DHT22;6970;51.340;3.240;2022-09-14T18:21:32;17.40;99.90
13798;DHT22;6970;51.340;3.240;2022-09-14T18:23:59;17.40;99.90
13798;DHT22;6970;51.340;3.240;2022-09-14T18:26:26;17.40;99.90
13798;DHT22;6970;51.340;3.240;2022-09-14T18:28:54;17.30;99.90
13798;DHT22;6970;51.340;3.240;2022-09-14T18:31:24;17.30;99.90
13798;DHT22;6970;51.340;3.240;2022-09-14T18:33:55;17.30;99.90
13798;DHT22;6970;51.340;3.240;2022-09-14T18:36:25;17.20;99.90
13798;DHT22;6970;51.340;3.240;2022-09-14T18:38:55;17.20;99.90
13798;DHT22;6970;51.340;3.240;2022-09-14T18:41:23;17.10;99.90
13798;DHT22;6970;51.340;3.240;2022-09-14T18:43:51;17.10;99.90
13798;DHT22;6970;51.340;3.240;2022-09-14T18:46:19;17.10;99.90
13798;DHT22;6970;51.340;3.240;2022-09-14T18:48:52;17.10;99.90
13798;DHT22;6970;51.340;3.240;2022-09-14T18:51:21;17.00;99.90
13798;DHT22;6970;51.340;3.240;2022-09-14T18:53:48;17.00;99.90
13798;DHT22;6970;51.340;3.240;2022-09-14T18:56:16;17.00;99.90
13798;DHT22;6970;51.340;3.240;2022-09-14T18:58:45;16.90;99.90
13798;DHT22;6970;51.340;3.240;2022-09-14T19:01:13;16.90;99.90
13798;DHT22;6970;51.340;3.240;2022-09-14T19:03:41;16.80;99.90
13798;DHT22;6970;51.340;3.240;2022-09-14T19:06:14;16.80;99.90
13798;DHT22;6970;51.340;3.240;2022-09-14T19:08:42;16.70;99.90
13798;DHT22;6970;51.340;3.240;2022-09-14T19:11:15;16.70;99.90
13798;DHT22;6970;51.340;3.240;2022-09-14T19:13:43;16.60;99.90